Time;durP1;ratioP1;P1;durP2;ratioP2;P2;SDS_P1;SDS_P2;PMS_P1;PMS_P2;Temp;Humidity;BMP_temperature;BMP_pressure;BME280_temperature;BME280_humidity;BME280_pressure;Samples;Min_cycle;Max_cycle;Signal;HPM_P1;HPM_P2
2024/03/24 00:02:01;;;;;;;57.80;2.90;;;;;;;;;;5096655;28;20265;-88
2024/03/24 00:04:28;;;;;;;56.78;3.00;;;;;;;;;;5084564;28;20475;-88
2024/03/24 00:06:55;;;;;;;57.63;3.30;;;;;;;;;;5086393;28;20236;-87
2024/03/24 00:09:22;;;;;;;57.10;3.72;;;;;;;;;;5091008;28;20502;-86
2024/03/24 00:11:50;;;;;;;56.58;3.00;;;;;;;;;;5089293;28;20245;-87
2024/03/24 00:14:17;;;;;;;58.23;3.17;;;;;;;;;;5086307;28;20221;-87
2024/03/24 00:16:43;;;;;;;56.17;2.90;;;;;;;;;;5084965;28;20457;-87
2024/03/24 00:19:10;;;;;;;57.77;3.30;;;;;;;;;;5085621;28;20198;-87
2024/03/24 00:21:36;;;;;;;58.33;2.60;;;;;;;;;;5085548;28;20451;-86
2024/03/24 00:24:04;;;;;;;57.75;3.40;;;;;;;;;;5093613;28;20204;-87
2024/03/24 00:26:30;;;;;;;56.40;2.80;;;;;;;;;;5091268;28;20588;-86
2024/03/24 00:28:59;;;;;;;56.88;3.05;;;;;;;;;;5087680;28;20216;-87
2024/03/24 00:31:25;;;;;;;55.97;2.87;;;;;;;;;;5085499;28;20255;-87
2024/03/24 00:33:52;;;;;;;57.08;3.22;;;;;;;;;;5085100;28;20501;-87
2024/03/24 00:36:18;;;;;;;56.58;3.08;;;;;;;;;;5085267;28;20648;-87
2024/03/24 00:38:48;;;;;;;56.57;2.67;;;;;;;;;;5084330;28;20223;-86
2024/03/24 00:41:14;;;;;;;57.10;3.53;;;;;;;;;;5088550;28;20457;-86
2024/03/24 00:43:41;;;;;;;57.03;2.90;;;;;;;;;;5080624;28;20471;-86
2024/03/24 00:46:09;;;;;;;57.23;2.80;;;;;;;;;;5086953;28;20513;-86
2024/03/24 00:48:36;;;;;;;57.42;3.03;;;;;;;;;;5087485;28;20453;-87
2024/03/24 00:51:02;;;;;;;56.50;3.07;;;;;;;;;;5077101;28;20265;-86
2024/03/24 00:53:30;;;;;;;58.50;2.92;;;;;;;;;;5088541;28;20476;-86
2024/03/24 00:55:56;;;;;;;58.60;3.10;;;;;;;;;;5087368;28;20236;-86
2024/03/24 00:58:23;;;;;;;56.10;3.08;;;;;;;;;;5091159;28;20965;-87
2024/03/24 01:00:50;;;;;;;60.80;2.92;;;;;;;;;;5089605;28;20204;-87
2024/03/24 01:03:18;;;;;;;59.08;3.13;;;;;;;;;;5092518;28;20234;-86
2024/03/24 01:05:47;;;;;;;56.75;2.72;;;;;;;;;;5086896;28;20281;-87
2024/03/24 01:08:14;;;;;;;58.47;3.63;;;;;;;;;;5091839;28;20228;-86
2024/03/24 01:10:40;;;;;;;56.27;3.30;;;;;;;;;;5083857;28;20458;-86
2024/03/24 01:13:08;;;;;;;56.20;2.87;;;;;;;;;;5085518;28;20438;-86
2024/03/24 01:15:34;;;;;;;57.03;2.60;;;;;;;;;;5088453;28;20953;-85
2024/03/24 01:18:02;;;;;;;60.33;3.10;;;;;;;;;;5083946;28;20235;-86
2024/03/24 01:20:30;;;;;;;58.20;3.40;;;;;;;;;;5086376;28;20442;-85
2024/03/24 01:22:57;;;;;;;55.97;2.70;;;;;;;;;;5077379;28;20496;-86
2024/03/24 01:25:23;;;;;;;56.07;3.00;;;;;;;;;;5087234;28;20220;-87
2024/03/24 01:27:51;;;;;;;58.00;2.80;;;;;;;;;;5085823;28;20436;-86
2024/03/24 01:30:17;;;;;;;57.35;3.15;;;;;;;;;;5086005;28;20443;-86
2024/03/24 01:32:44;;;;;;;56.40;2.90;;;;;;;;;;5090855;28;20198;-86
2024/03/24 01:35:11;;;;;;;56.33;3.30;;;;;;;;;;5094608;28;20988;-85
2024/03/24 01:37:39;;;;;;;59.57;3.97;;;;;;;;;;5088001;28;20447;-85
2024/03/24 01:40:06;;;;;;;57.80;2.83;;;;;;;;;;5082155;28;20492;-86
2024/03/24 01:42:34;;;;;;;56.13;2.80;;;;;;;;;;5087859;28;20433;-86
2024/03/24 01:45:00;;;;;;;57.77;3.37;;;;;;;;;;5092901;28;20598;-85
2024/03/24 01:47:27;;;;;;;56.37;3.27;;;;;;;;;;5082382;28;20930;-85
2024/03/24 01:49:53;;;;;;;56.60;3.30;;;;;;;;;;5090218;28;20445;-85
2024/03/24 01:52:21;;;;;;;59.45;3.05;;;;;;;;;;5081971;28;20943;-86
2024/03/24 01:54:52;;;;;;;58.93;3.00;;;;;;;;;;5082183;28;20224;-86
2024/03/24 01:57:19;;;;;;;56.05;3.00;;;;;;;;;;5082718;28;20450;-86
2024/03/24 01:59:45;;;;;;;56.50;3.00;;;;;;;;;;5073736;28;20262;-86
2024/03/24 02:02:13;;;;;;;60.87;3.37;;;;;;;;;;5082286;28;20200;-86
2024/03/24 02:04:45;;;;;;;56.78;3.33;;;;;;;;;;5073219;28;20888;-87
2024/03/24 02:07:12;;;;;;;57.25;3.30;;;;;;;;;;5083984;28;20284;-85
2024/03/24 02:09:38;;;;;;;55.97;3.00;;;;;;;;;;5079214;28;20265;-86
2024/03/24 02:12:07;;;;;;;62.45;3.33;;;;;;;;;;5090196;28;20281;-86
2024/03/24 02:14:34;;;;;;;57.25;3.03;;;;;;;;;;5087241;28;20230;-86
2024/03/24 02:17:01;;;;;;;57.03;2.85;;;;;;;;;;5085372;28;20355;-86
2024/03/24 02:19:28;;;;;;;56.30;3.13;;;;;;;;;;5088781;28;20199;-87
2024/03/24 02:21:55;;;;;;;56.28;2.95;;;;;;;;;;5073430;28;20240;-85
2024/03/24 02:24:22;;;;;;;56.38;3.10;;;;;;;;;;5077300;28;20236;-86
2024/03/24 02:26:50;;;;;;;56.35;3.00;;;;;;;;;;5085335;28;20224;-86
2024/03/24 02:29:16;;;;;;;56.95;3.38;;;;;;;;;;5084738;28;20269;-86
2024/03/24 02:31:43;;;;;;;58.22;3.13;;;;;;;;;;5085468;28;20620;-88
2024/03/24 02:34:10;;;;;;;58.92;3.70;;;;;;;;;;5091309;28;20276;-86
2024/03/24 02:36:37;;;;;;;56.38;3.05;;;;;;;;;;5081592;28;20279;-86
2024/03/24 02:39:05;;;;;;;56.15;3.25;;;;;;;;;;5081173;28;20249;-86
2024/03/24 02:41:34;;;;;;;56.67;3.40;;;;;;;;;;5081431;28;20246;-88
2024/03/24 02:44:00;;;;;;;56.67;3.10;;;;;;;;;;5089678;28;20686;-86
2024/03/24 02:46:27;;;;;;;57.05;3.25;;;;;;;;;;5085719;28;20239;-86
2024/03/24 02:48:53;;;;;;;56.47;2.80;;;;;;;;;;5084821;28;20549;-87
2024/03/24 02:51:21;;;;;;;56.50;2.97;;;;;;;;;;5085496;28;20806;-87
2024/03/24 02:53:47;;;;;;;57.20;2.90;;;;;;;;;;5094053;28;20678;-87
2024/03/24 02:56:14;;;;;;;56.60;3.35;;;;;;;;;;5085257;28;20704;-87
2024/03/24 02:58:42;;;;;;;56.58;3.13;;;;;;;;;;5085762;28;20232;-87
2024/03/24 03:01:09;;;;;;;56.60;3.40;;;;;;;;;;5076870;28;20209;-86
2024/03/24 03:03:35;;;;;;;56.10;3.03;;;;;;;;;;5079739;28;20439;-87
2024/03/24 03:06:02;;;;;;;56.10;3.10;;;;;;;;;;5089918;28;20220;-87
2024/03/24 03:08:29;;;;;;;56.97;3.10;;;;;;;;;;5086090;28;20199;-86
2024/03/24 03:10:56;;;;;;;56.50;3.10;;;;;;;;;;5077096;28;20210;-87
2024/03/24 03:13:22;;;;;;;56.05;2.90;;;;;;;;;;5073383;28;20450;-87
2024/03/24 03:15:51;;;;;;;59.17;2.97;;;;;;;;;;5088927;28;20247;-86
2024/03/24 03:18:17;;;;;;;57.17;3.40;;;;;;;;;;5085207;28;20450;-87
2024/03/24 03:20:45;;;;;;;56.60;3.08;;;;;;;;;;5093720;28;20427;-87
2024/03/24 03:23:11;;;;;;;56.10;2.90;;;;;;;;;;5091721;28;20203;-86
2024/03/24 03:25:38;;;;;;;56.97;3.57;;;;;;;;;;5086666;28;20840;-87
2024/03/24 03:28:05;;;;;;;56.77;2.90;;;;;;;;;;5083722;28;20510;-86
2024/03/24 03:30:32;;;;;;;59.23;3.10;;;;;;;;;;5080979;28;20440;-87
2024/03/24 03:33:00;;;;;;;58.25;2.90;;;;;;;;;;5081069;28;20508;-86
2024/03/24 03:35:27;;;;;;;56.10;2.95;;;;;;;;;;5084140;28;20223;-86
2024/03/24 03:37:53;;;;;;;56.40;3.10;;;;;;;;;;5092809;28;20210;-86
2024/03/24 03:40:20;;;;;;;57.23;3.30;;;;;;;;;;5080879;28;20940;-86
2024/03/24 03:42:47;;;;;;;56.13;3.30;;;;;;;;;;5087254;28;20447;-87
2024/03/24 03:45:15;;;;;;;57.72;3.13;;;;;;;;;;5081920;28;20458;-86
2024/03/24 03:47:42;;;;;;;55.90;3.07;;;;;;;;;;5080877;28;20215;-86
2024/03/24 03:50:13;;;;;;;57.15;3.35;;;;;;;;;;5081915;28;20477;-86
2024/03/24 03:52:40;;;;;;;56.95;3.15;;;;;;;;;;5086722;28;20207;-86
2024/03/24 03:55:11;;;;;;;58.78;3.45;;;;;;;;;;5088769;28;20573;-87
2024/03/24 03:57:39;;;;;;;56.72;3.13;;;;;;;;;;5085976;28;20206;-86
2024/03/24 04:00:10;;;;;;;57.38;3.20;;;;;;;;;;5083122;28;20229;-86
2024/03/24 04:02:37;;;;;;;59.30;3.20;;;;;;;;;;5080431;28;20239;-86
2024/03/24 04:05:04;;;;;;;57.65;2.80;;;;;;;;;;5081079;28;20208;-87
2024/03/24 04:07:33;;;;;;;56.00;2.70;;;;;;;;;;5088323;28;20549;-86
2024/03/24 04:09:59;;;;;;;57.97;3.33;;;;;;;;;;5080305;28;20249;-87
2024/03/24 04:12:26;;;;;;;56.45;3.15;;;;;;;;;;5083786;28;20448;-86
2024/03/24 04:14:52;;;;;;;56.38;2.90;;;;;;;;;;5084893;28;20563;-87
2024/03/24 04:17:20;;;;;;;56.72;3.08;;;;;;;;;;5083200;28;20201;-86
2024/03/24 04:19:47;;;;;;;55.97;2.70;;;;;;;;;;5077619;28;20311;-86
2024/03/24 04:22:14;;;;;;;56.50;3.00;;;;;;;;;;5088695;28;20442;-87
2024/03/24 04:24:41;;;;;;;56.53;2.90;;;;;;;;;;5085953;28;20449;-86
2024/03/24 04:27:09;;;;;;;57.73;2.97;;;;;;;;;;5084218;28;20855;-86
2024/03/24 04:29:35;;;;;;;56.10;2.97;;;;;;;;;;5085919;28;20971;-86
2024/03/24 04:32:03;;;;;;;57.55;3.15;;;;;;;;;;5078855;28;20283;-86
2024/03/24 04:34:29;;;;;;;55.80;3.20;;;;;;;;;;5087212;28;20230;-86
2024/03/24 04:36:56;;;;;;;57.03;2.77;;;;;;;;;;5095667;28;20839;-86
2024/03/24 04:39:24;;;;;;;56.40;3.20;;;;;;;;;;5084398;28;20451;-87
2024/03/24 04:41:53;;;;;;;56.27;2.60;;;;;;;;;;5084151;28;20462;-87
2024/03/24 04:44:20;;;;;;;56.50;2.97;;;;;;;;;;5094899;28;20441;-88
2024/03/24 04:46:48;;;;;;;57.33;3.27;;;;;;;;;;5095376;28;20458;-88
2024/03/24 04:49:14;;;;;;;57.17;3.40;;;;;;;;;;5086677;28;20450;-88
2024/03/24 04:51:41;;;;;;;56.07;3.00;;;;;;;;;;5095228;28;20458;-89
2024/03/24 04:54:07;;;;;;;58.97;2.65;;;;;;;;;;5087129;28;20513;-88
2024/03/24 04:56:35;;;;;;;56.47;3.05;;;;;;;;;;5095498;28;20224;-88
2024/03/24 04:59:05;;;;;;;57.20;2.80;;;;;;;;;;5094910;28;20211;-88
2024/03/24 05:01:33;;;;;;;55.80;2.60;;;;;;;;;;5087242;28;20504;-88
2024/03/24 05:03:59;;;;;;;56.20;2.70;;;;;;;;;;5078598;28;20446;-88
2024/03/24 05:06:27;;;;;;;55.90;2.53;;;;;;;;;;5082883;28;20451;-88
2024/03/24 05:08:53;;;;;;;56.28;3.00;;;;;;;;;;5081696;28;20231;-88
2024/03/24 05:11:30;;;;;;;56.17;2.65;;;;;;;;;;5092596;28;20691;-88
2024/03/24 05:13:56;;;;;;;55.92;2.80;;;;;;;;;;5083114;28;20605;-87
2024/03/24 05:16:30;;;;;;;56.38;3.38;;;;;;;;;;5091253;28;20698;-87
2024/03/24 05:18:56;;;;;;;55.92;3.20;;;;;;;;;;5074803;28;20337;-87
2024/03/24 05:21:24;;;;;;;56.00;2.70;;;;;;;;;;5093980;28;20199;-87
2024/03/24 05:23:51;;;;;;;56.60;3.22;;;;;;;;;;5086152;28;20202;-87
2024/03/24 05:26:18;;;;;;;57.90;3.40;;;;;;;;;;5084008;28;20758;-88
2024/03/24 05:28:44;;;;;;;56.47;3.10;;;;;;;;;;5082537;28;20204;-87
2024/03/24 05:31:11;;;;;;;55.97;3.03;;;;;;;;;;5090985;28;20203;-87
2024/03/24 05:33:39;;;;;;;56.28;3.05;;;;;;;;;;5082408;28;20211;-87
2024/03/24 05:36:07;;;;;;;57.60;3.30;;;;;;;;;;5074126;28;20267;-87
2024/03/24 05:38:33;;;;;;;56.40;3.38;;;;;;;;;;5090399;28;20549;-87
2024/03/24 05:41:01;;;;;;;56.17;2.85;;;;;;;;;;5089913;28;20217;-87
2024/03/24 05:43:27;;;;;;;59.90;3.10;;;;;;;;;;5086029;28;20272;-88
2024/03/24 05:45:55;;;;;;;57.30;3.35;;;;;;;;;;5085660;28;20321;-90
2024/03/24 05:48:22;;;;;;;57.20;3.53;;;;;;;;;;5094676;28;20683;-87
2024/03/24 05:50:58;;;;;;;57.13;3.10;;;;;;;;;;5079649;28;20192;-87
2024/03/24 05:53:24;;;;;;;55.90;2.80;;;;;;;;;;5090521;28;20219;-87
2024/03/24 05:55:52;;;;;;;56.40;2.90;;;;;;;;;;5082036;28;20229;-88
2024/03/24 05:58:18;;;;;;;56.40;3.60;;;;;;;;;;5090340;28;20522;-88
2024/03/24 06:00:46;;;;;;;58.83;3.40;;;;;;;;;;5073774;28;20381;-88
2024/03/24 06:03:12;;;;;;;56.10;3.00;;;;;;;;;;5082892;28;20446;-89
2024/03/24 06:05:39;;;;;;;56.17;3.30;;;;;;;;;;5093904;28;20248;-89
2024/03/24 06:08:08;;;;;;;58.70;3.00;;;;;;;;;;5077215;28;20855;-89
2024/03/24 06:10:36;;;;;;;56.40;2.92;;;;;;;;;;5079638;28;20458;-88
2024/03/24 06:13:02;;;;;;;56.58;3.05;;;;;;;;;;5093951;28;20614;-88
2024/03/24 06:15:29;;;;;;;56.37;3.10;;;;;;;;;;5076739;28;20311;-88
2024/03/24 06:17:56;;;;;;;57.03;2.80;;;;;;;;;;5078229;28;20473;-88
2024/03/24 06:20:23;;;;;;;56.70;3.50;;;;;;;;;;5075462;28;20492;-89
2024/03/24 06:22:51;;;;;;;56.37;3.03;;;;;;;;;;5085264;28;20443;-88
2024/03/24 06:25:20;;;;;;;56.85;3.00;;;;;;;;;;5084981;28;20463;-88
2024/03/24 06:27:46;;;;;;;56.00;3.10;;;;;;;;;;5093497;28;20204;-92
2024/03/24 06:30:14;;;;;;;57.47;3.77;;;;;;;;;;5092700;28;20438;-88
2024/03/24 06:32:41;;;;;;;56.28;2.85;;;;;;;;;;5077859;28;20954;-89
2024/03/24 06:35:11;;;;;;;57.30;3.00;;;;;;;;;;5084792;28;20216;-89
2024/03/24 06:37:38;;;;;;;56.67;3.20;;;;;;;;;;5093300;28;20209;-88
2024/03/24 06:40:07;;;;;;;55.90;2.70;;;;;;;;;;5084827;28;20201;-89
2024/03/24 06:42:39;;;;;;;56.28;2.85;;;;;;;;;;5093435;28;20441;-88
2024/03/24 06:45:08;;;;;;;56.77;3.10;;;;;;;;;;5076593;28;20214;-89
2024/03/24 06:47:34;;;;;;;55.90;2.60;;;;;;;;;;5076752;28;20508;-89
2024/03/24 06:50:02;;;;;;;57.10;3.50;;;;;;;;;;5084788;28;20465;-89
2024/03/24 06:52:28;;;;;;;55.87;3.20;;;;;;;;;;5092546;28;20458;-89
2024/03/24 06:54:56;;;;;;;60.23;3.10;;;;;;;;;;5078236;28;20494;-89
2024/03/24 06:57:22;;;;;;;56.00;2.87;;;;;;;;;;5072775;28;20458;-89
2024/03/24 06:59:50;;;;;;;57.23;3.00;;;;;;;;;;5086715;28;20445;-89
2024/03/24 07:02:17;;;;;;;57.73;3.90;;;;;;;;;;5083303;28;20508;-89
2024/03/24 07:04:44;;;;;;;57.73;3.20;;;;;;;;;;5077616;28;20561;-89
2024/03/24 07:07:10;;;;;;;56.10;3.10;;;;;;;;;;5084566;28;20527;-90
2024/03/24 07:09:38;;;;;;;56.90;3.40;;;;;;;;;;5080557;28;20463;-89
2024/03/24 07:12:05;;;;;;;56.10;3.20;;;;;;;;;;5088405;28;20477;-89
2024/03/24 07:14:32;;;;;;;56.63;3.43;;;;;;;;;;5081276;28;20439;-88
2024/03/24 07:16:59;;;;;;;57.30;3.57;;;;;;;;;;5073022;28;20474;-88
2024/03/24 07:19:27;;;;;;;57.00;3.00;;;;;;;;;;5089529;28;20532;-89
2024/03/24 07:21:53;;;;;;;57.37;3.80;;;;;;;;;;5078705;28;20456;-88
2024/03/24 07:24:20;;;;;;;57.00;3.50;;;;;;;;;;5091848;28;20447;-88
2024/03/24 07:26:46;;;;;;;56.10;3.30;;;;;;;;;;5086681;28;20521;-89
2024/03/24 07:29:14;;;;;;;57.73;3.70;;;;;;;;;;5093380;28;20453;-88
2024/03/24 07:31:40;;;;;;;56.00;3.30;;;;;;;;;;5084762;28;20875;-89
2024/03/24 07:34:09;;;;;;;56.20;3.50;;;;;;;;;;5093133;28;20470;-88
2024/03/24 07:36:35;;;;;;;56.07;3.17;;;;;;;;;;5075929;28;21185;-88
2024/03/24 07:39:03;;;;;;;56.77;3.20;;;;;;;;;;5084596;28;21011;-89
2024/03/24 07:41:29;;;;;;;56.27;2.90;;;;;;;;;;5084175;28;20451;-88
2024/03/24 07:43:57;;;;;;;56.37;3.27;;;;;;;;;;5092790;28;20449;-90
2024/03/24 07:46:23;;;;;;;56.20;3.47;;;;;;;;;;5094269;28;20505;-87
2024/03/24 07:49:03;;;;;;;56.17;2.77;;;;;;;;;;5072996;28;20432;-89
2024/03/24 07:51:31;;;;;;;58.83;3.17;;;;;;;;;;5081436;28;20477;-88
2024/03/24 07:53:58;;;;;;;59.13;2.70;;;;;;;;;;5081478;28;20469;-88
2024/03/24 07:56:24;;;;;;;57.00;2.67;;;;;;;;;;5074172;28;20487;-89
2024/03/24 07:58:52;;;;;;;58.27;2.77;;;;;;;;;;5086400;28;20490;-88
2024/03/24 08:01:18;;;;;;;56.30;3.07;;;;;;;;;;5084577;28;20488;-89
2024/03/24 08:03:45;;;;;;;57.13;3.10;;;;;;;;;;5086673;28;20544;-88
2024/03/24 08:06:11;;;;;;;61.30;3.17;;;;;;;;;;5090745;28;20573;-87
2024/03/24 08:08:40;;;;;;;59.20;2.80;;;;;;;;;;5079384;28;20470;-88
2024/03/24 08:11:07;;;;;;;56.00;2.67;;;;;;;;;;5085439;28;20493;-87
2024/03/24 08:13:34;;;;;;;56.27;2.77;;;;;;;;;;5088315;28;20437;-88
2024/03/24 08:16:01;;;;;;;55.50;2.23;;;;;;;;;;5088089;28;20474;-87
2024/03/24 08:18:28;;;;;;;56.37;2.50;;;;;;;;;;5097028;28;20462;-88
2024/03/24 08:20:55;;;;;;;58.43;2.60;;;;;;;;;;5088443;28;20505;-88
2024/03/24 08:23:22;;;;;;;59.43;2.70;;;;;;;;;;5095399;28;20969;-88
2024/03/24 08:25:50;;;;;;;56.27;2.53;;;;;;;;;;5076206;28;20463;-87
2024/03/24 08:28:22;;;;;;;55.70;2.13;;;;;;;;;;5094244;28;20841;-89
2024/03/24 08:30:48;;;;;;;57.67;2.63;;;;;;;;;;5088601;28;20474;-88
2024/03/24 08:33:15;;;;;;;56.50;2.40;;;;;;;;;;5096998;28;20883;-89
2024/03/24 08:35:42;;;;;;;57.40;2.50;;;;;;;;;;5087989;28;20490;-89
2024/03/24 08:38:09;;;;;;;56.20;2.90;;;;;;;;;;5088173;28;20830;-89
2024/03/24 08:40:35;;;;;;;56.63;2.20;;;;;;;;;;5079116;28;20477;-88
2024/03/24 08:43:04;;;;;;;56.60;2.73;;;;;;;;;;5090330;28;20517;-88
2024/03/24 08:45:30;;;;;;;56.57;2.60;;;;;;;;;;5087908;28;20897;-89
2024/03/24 08:47:58;;;;;;;59.87;3.53;;;;;;;;;;5089061;28;20525;-89
2024/03/24 08:50:24;;;;;;;56.00;2.73;;;;;;;;;;5090627;28;20573;-87
2024/03/24 08:52:52;;;;;;;56.77;2.60;;;;;;;;;;5093451;28;20448;-89
2024/03/24 08:55:18;;;;;;;57.00;2.70;;;;;;;;;;5093083;28;20490;-89
2024/03/24 08:57:47;;;;;;;56.67;2.43;;;;;;;;;;5059632;28;20455;-88
2024/03/24 09:00:15;;;;;;;56.40;3.07;;;;;;;;;;5086240;28;20542;-88
2024/03/24 09:02:42;;;;;;;58.80;2.83;;;;;;;;;;5077196;28;20456;-87
2024/03/24 09:05:09;;;;;;;56.00;2.90;;;;;;;;;;5097854;28;20504;-89
2024/03/24 09:07:39;;;;;;;66.90;3.57;;;;;;;;;;5093401;28;20455;-89
2024/03/24 09:10:05;;;;;;;56.70;3.10;;;;;;;;;;5091036;28;20476;-89
2024/03/24 09:12:34;;;;;;;57.70;3.17;;;;;;;;;;5093474;28;20426;-95
2024/03/24 09:15:01;;;;;;;57.80;3.10;;;;;;;;;;5095274;28;20527;-88
2024/03/24 09:17:32;;;;;;;57.17;2.97;;;;;;;;;;5102752;28;20443;-91
2024/03/24 09:19:59;;;;;;;56.70;3.40;;;;;;;;;;5118005;28;20470;-91
2024/03/24 09:22:26;;;;;;;57.17;3.33;;;;;;;;;;5117670;28;20455;-88
2024/03/24 09:24:52;;;;;;;58.67;3.37;;;;;;;;;;5112600;28;20471;-88
2024/03/24 09:27:20;;;;;;;60.13;3.60;;;;;;;;;;5097533;28;20435;-90
2024/03/24 09:29:46;;;;;;;60.30;3.70;;;;;;;;;;5093185;28;20553;-92
2024/03/24 09:32:13;;;;;;;56.87;3.10;;;;;;;;;;5099873;28;20840;-88
2024/03/24 09:34:44;;;;;;;58.37;3.30;;;;;;;;;;5100136;28;20459;-91
2024/03/24 09:37:12;;;;;;;58.67;3.17;;;;;;;;;;5101752;28;20975;-90
2024/03/24 09:39:38;;;;;;;56.97;3.33;;;;;;;;;;5099088;28;20901;-89
2024/03/24 09:42:06;;;;;;;60.00;3.20;;;;;;;;;;5093245;28;20497;-89
2024/03/24 09:44:33;;;;;;;56.97;2.80;;;;;;;;;;5100010;28;20437;-88
2024/03/24 09:47:00;;;;;;;58.63;3.33;;;;;;;;;;5103870;28;20467;-90
2024/03/24 09:49:27;;;;;;;58.90;3.17;;;;;;;;;;5104362;28;20465;-88
2024/03/24 09:51:57;;;;;;;57.03;2.90;;;;;;;;;;5099802;28;20530;-89
2024/03/24 09:54:23;;;;;;;56.87;3.20;;;;;;;;;;5094897;28;20457;-87
2024/03/24 09:56:52;;;;;;;59.37;3.17;;;;;;;;;;5104952;28;20483;-89
2024/03/24 09:59:18;;;;;;;60.90;3.60;;;;;;;;;;5110836;28;20426;-89
2024/03/24 10:01:47;;;;;;;57.87;2.77;;;;;;;;;;5113908;28;20454;-92
2024/03/24 10:04:15;;;;;;;56.57;2.83;;;;;;;;;;5114328;28;20454;-90
2024/03/24 10:06:42;;;;;;;58.50;4.03;;;;;;;;;;5095316;28;20516;-91
2024/03/24 10:09:10;;;;;;;60.97;3.23;;;;;;;;;;5085583;28;20521;-90
2024/03/24 10:11:40;;;;;;;56.37;3.20;;;;;;;;;;5078328;28;20452;-91
2024/03/24 10:14:07;;;;;;;56.67;2.90;;;;;;;;;;5083256;28;20444;-91
2024/03/24 10:16:34;;;;;;;58.80;3.00;;;;;;;;;;5077601;28;21018;-89
2024/03/24 10:19:10;;;;;;;57.90;3.10;;;;;;;;;;5077546;28;20432;-90
2024/03/24 10:21:38;;;;;;;57.80;3.40;;;;;;;;;;5088794;28;20453;-90
2024/03/24 10:24:06;;;;;;;57.23;3.30;;;;;;;;;;5089696;28;20467;-89
2024/03/24 10:26:36;;;;;;;56.97;2.97;;;;;;;;;;5092257;28;20465;-90
2024/03/24 10:29:03;;;;;;;61.20;3.17;;;;;;;;;;5089890;28;20447;-90
2024/03/24 10:31:31;;;;;;;57.90;3.33;;;;;;;;;;5095770;28;20476;-89
2024/03/24 10:33:58;;;;;;;57.57;3.40;;;;;;;;;;5076849;28;20454;-90
2024/03/24 10:36:25;;;;;;;57.40;3.83;;;;;;;;;;5095382;28;21031;-89
2024/03/24 10:38:52;;;;;;;60.07;3.37;;;;;;;;;;5095343;28;20501;-89
2024/03/24 10:41:19;;;;;;;58.93;3.17;;;;;;;;;;5095365;28;20505;-89
2024/03/24 10:43:50;;;;;;;59.60;3.23;;;;;;;;;;5094959;28;20516;-89
2024/03/24 10:46:17;;;;;;;57.10;3.40;;;;;;;;;;5095154;28;20468;-89
2024/03/24 10:48:45;;;;;;;57.80;3.60;;;;;;;;;;5095257;28;20446;-89
2024/03/24 10:51:13;;;;;;;57.77;3.30;;;;;;;;;;5079787;28;20448;-90
2024/03/24 10:53:40;;;;;;;57.90;3.17;;;;;;;;;;5075928;28;20456;-90
2024/03/24 10:56:07;;;;;;;62.30;3.67;;;;;;;;;;5075637;28;20486;-88
2024/03/24 10:58:38;;;;;;;57.97;3.80;;;;;;;;;;5075891;28;20463;-90
2024/03/24 11:01:07;;;;;;;57.00;3.30;;;;;;;;;;5075535;28;20501;-90
2024/03/24 11:03:34;;;;;;;57.40;2.93;;;;;;;;;;5075252;28;20828;-92
2024/03/24 11:06:02;;;;;;;58.10;3.60;;;;;;;;;;5074547;28;20992;-90
2024/03/24 11:08:29;;;;;;;58.00;3.30;;;;;;;;;;5076152;28;20545;-90
2024/03/24 11:11:01;;;;;;;57.20;3.80;;;;;;;;;;5075728;28;20483;-91
2024/03/24 11:13:28;;;;;;;68.50;8.47;;;;;;;;;;5075708;28;20460;-91
2024/03/24 11:15:55;;;;;;;57.53;3.73;;;;;;;;;;5075860;28;20487;-90
2024/03/24 11:18:24;;;;;;;57.80;3.50;;;;;;;;;;5074728;28;20816;-90
2024/03/24 11:20:52;;;;;;;58.83;3.40;;;;;;;;;;5074772;28;20456;-90
2024/03/24 11:23:22;;;;;;;61.67;5.40;;;;;;;;;;5074411;28;20444;-91
2024/03/24 11:25:50;;;;;;;57.67;3.50;;;;;;;;;;5076057;28;21019;-90
2024/03/24 11:28:38;;;;;;;58.20;3.10;;;;;;;;;;5076556;28;20876;-90
2024/03/24 11:31:12;;;;;;;58.57;3.33;;;;;;;;;;5081851;28;20451;-90
2024/03/24 11:33:40;;;;;;;57.20;3.03;;;;;;;;;;5092696;28;20464;-88
2024/03/24 11:36:18;;;;;;;59.40;3.50;;;;;;;;;;5075040;28;20858;-89
2024/03/24 11:38:47;;;;;;;56.70;3.37;;;;;;;;;;5097859;28;20986;-89
2024/03/24 11:41:15;;;;;;;57.27;3.70;;;;;;;;;;5091490;28;20557;-88
2024/03/24 11:43:42;;;;;;;58.10;2.93;;;;;;;;;;5082150;28;20542;-88
2024/03/24 11:46:12;;;;;;;58.13;2.70;;;;;;;;;;5093221;28;20486;-90
2024/03/24 11:48:41;;;;;;;58.67;3.70;;;;;;;;;;5078459;28;20523;-88
2024/03/24 11:51:08;;;;;;;55.67;2.70;;;;;;;;;;5077953;28;20566;-89
2024/03/24 11:53:35;;;;;;;59.20;3.03;;;;;;;;;;5079429;28;20451;-89
2024/03/24 11:56:04;;;;;;;58.57;3.00;;;;;;;;;;5098181;28;20478;-90
2024/03/24 11:58:30;;;;;;;56.10;2.90;;;;;;;;;;5097628;28;20474;-90
2024/03/24 12:00:59;;;;;;;56.27;2.83;;;;;;;;;;5098398;28;20457;-89
2024/03/24 12:03:26;;;;;;;56.53;2.97;;;;;;;;;;5097822;28;20455;-90
2024/03/24 12:05:56;;;;;;;56.80;3.10;;;;;;;;;;5098207;28;20860;-92
2024/03/24 12:08:24;;;;;;;57.30;3.57;;;;;;;;;;5098720;28;21015;-90
2024/03/24 12:10:52;;;;;;;58.43;3.20;;;;;;;;;;5097404;28;20508;-89
2024/03/24 12:13:18;;;;;;;57.60;3.30;;;;;;;;;;5097744;28;20480;-89
2024/03/24 12:15:46;;;;;;;56.77;3.33;;;;;;;;;;5097227;28;20475;-89
2024/03/24 12:18:12;;;;;;;56.10;3.07;;;;;;;;;;5097521;28;20458;-91
2024/03/24 12:20:41;;;;;;;58.63;3.30;;;;;;;;;;5097745;28;20795;-91
2024/03/24 12:23:09;;;;;;;57.53;3.00;;;;;;;;;;5097825;28;20485;-90
2024/03/24 12:25:37;;;;;;;57.13;3.60;;;;;;;;;;5099045;28;20492;-91
2024/03/24 12:28:03;;;;;;;57.37;3.10;;;;;;;;;;5098551;28;20460;-90
2024/03/24 12:30:31;;;;;;;56.50;3.43;;;;;;;;;;5099186;28;20511;-91
2024/03/24 12:33:01;;;;;;;56.30;3.23;;;;;;;;;;5098764;28;20454;-91
2024/03/24 12:35:28;;;;;;;57.10;3.57;;;;;;;;;;5097666;28;20504;-90
2024/03/24 12:37:55;;;;;;;56.67;3.27;;;;;;;;;;5077343;28;20476;-91
2024/03/24 12:40:25;;;;;;;56.57;3.10;;;;;;;;;;5077512;28;20448;-90
2024/03/24 12:42:51;;;;;;;57.70;3.57;;;;;;;;;;5077010;28;20452;-90
2024/03/24 12:45:19;;;;;;;58.10;4.17;;;;;;;;;;5076464;28;20467;-90
2024/03/24 12:47:45;;;;;;;57.80;3.57;;;;;;;;;;5076922;28;20505;-91
2024/03/24 12:50:26;;;;;;;58.30;3.70;;;;;;;;;;5075558;28;20468;-90
2024/03/24 12:52:56;;;;;;;56.40;2.83;;;;;;;;;;5076448;28;20419;-90
2024/03/24 12:55:25;;;;;;;56.57;3.40;;;;;;;;;;5076202;28;20538;-91
2024/03/24 12:57:53;;;;;;;56.20;3.23;;;;;;;;;;5076343;28;20476;-91
2024/03/24 13:00:21;;;;;;;57.10;3.30;;;;;;;;;;5075981;28;20475;-91
2024/03/24 13:02:48;;;;;;;57.50;3.77;;;;;;;;;;5075962;28;20448;-92
2024/03/24 13:05:19;;;;;;;56.83;3.10;;;;;;;;;;5076709;28;20544;-90
2024/03/24 13:07:50;;;;;;;56.47;3.33;;;;;;;;;;5080038;28;20887;-90
2024/03/24 13:10:21;;;;;;;58.90;2.70;;;;;;;;;;5083918;28;20459;-90
2024/03/24 13:12:56;;;;;;;57.23;3.17;;;;;;;;;;5089067;28;20444;-89
2024/03/24 13:15:34;;;;;;;57.97;3.50;;;;;;;;;;5092130;28;20465;-92
2024/03/24 13:18:13;;;;;;;56.47;2.90;;;;;;;;;;5084900;28;20468;-91
2024/03/24 13:20:49;;;;;;;57.97;3.00;;;;;;;;;;5089257;28;20545;-90
2024/03/24 13:23:17;;;;;;;58.17;4.13;;;;;;;;;;5084066;28;20504;-89
2024/03/24 13:25:53;;;;;;;56.17;3.23;;;;;;;;;;5088075;28;20528;-90
2024/03/24 13:28:25;;;;;;;56.17;2.93;;;;;;;;;;5099523;28;20446;-89
2024/03/24 13:31:00;;;;;;;57.77;3.43;;;;;;;;;;5096653;28;20450;-89
2024/03/24 13:33:30;;;;;;;56.93;3.70;;;;;;;;;;5077770;28;20451;-90
2024/03/24 13:35:57;;;;;;;56.57;3.00;;;;;;;;;;5079950;28;20487;-89
2024/03/24 13:38:30;;;;;;;56.97;3.43;;;;;;;;;;5096428;28;20525;-88
2024/03/24 13:41:01;;;;;;;58.13;3.40;;;;;;;;;;5096121;28;20942;-90
2024/03/24 13:43:36;;;;;;;58.33;3.23;;;;;;;;;;5096252;28;20418;-90
2024/03/24 13:46:15;;;;;;;56.63;3.23;;;;;;;;;;5096498;28;20985;-90
2024/03/24 13:48:45;;;;;;;56.80;3.10;;;;;;;;;;5096535;28;20450;-90
2024/03/24 13:51:13;;;;;;;59.13;2.70;;;;;;;;;;5096695;28;20807;-90
2024/03/24 13:53:40;;;;;;;57.03;2.70;;;;;;;;;;5096399;28;20462;-89
2024/03/24 13:56:07;;;;;;;56.17;2.93;;;;;;;;;;5096244;28;20822;-90
2024/03/24 13:59:16;;;;;;;58.37;3.27;;;;;;;;;;5097228;28;20554;-89
2024/03/24 14:01:58;;;;;;;59.20;3.20;;;;;;;;;;5097217;28;20473;-90
2024/03/24 14:04:28;;;;;;;56.93;2.87;;;;;;;;;;5098095;28;20534;-89
2024/03/24 14:06:55;;;;;;;55.90;2.63;;;;;;;;;;5103092;28;20475;-87
2024/03/24 14:09:24;;;;;;;58.40;2.80;;;;;;;;;;5094694;28;20496;-92
2024/03/24 14:11:51;;;;;;;58.50;2.80;;;;;;;;;;5103134;28;20440;-91
2024/03/24 14:14:26;;;;;;;55.50;2.50;;;;;;;;;;5092767;28;20495;-90
2024/03/24 14:17:02;;;;;;;57.10;2.57;;;;;;;;;;5101595;28;20467;-91
2024/03/24 14:19:36;;;;;;;56.07;2.57;;;;;;;;;;5099527;28;20463;-92
2024/03/24 14:22:06;;;;;;;56.27;2.37;;;;;;;;;;5085848;28;20939;-90
2024/03/24 14:24:35;;;;;;;55.80;2.60;;;;;;;;;;5087395;28;20435;-89
2024/03/24 14:27:02;;;;;;;58.60;2.90;;;;;;;;;;5085207;28;20861;-87
2024/03/24 14:29:29;;;;;;;57.43;2.80;;;;;;;;;;5084151;28;20440;-89
2024/03/24 14:31:57;;;;;;;55.87;2.67;;;;;;;;;;5086831;28;20454;-91
2024/03/24 14:34:24;;;;;;;57.27;3.40;;;;;;;;;;5096170;28;20561;-90
2024/03/24 14:37:03;;;;;;;57.10;2.90;;;;;;;;;;5083877;28;20510;-88